createdAt,value
2022-09-28T00:05:02.535Z,100.00
2022-09-28T00:15:18.409Z,100.00
2022-09-28T00:25:31.542Z,100.00
2022-09-28T00:35:43.354Z,100.00
2022-09-28T00:46:08.722Z,100.00
2022-09-28T00:56:19.258Z,100.00
2022-09-28T01:06:31.425Z,100.00
2022-09-28T01:17:38.520Z,100.00
2022-09-28T01:28:19.006Z,100.00
2022-09-28T01:38:45.233Z,100.00
2022-09-28T01:49:15.155Z,100.00
2022-09-28T02:00:00.439Z,100.00
2022-09-28T02:11:10.852Z,100.00
2022-09-28T02:21:54.077Z,100.00
2022-09-28T02:32:40.271Z,100.00
2022-09-28T02:44:07.489Z,100.00
2022-09-28T02:55:16.947Z,100.00
2022-09-28T03:05:47.066Z,100.00
2022-09-28T03:16:57.622Z,100.00
2022-09-28T03:27:51.651Z,100.00
2022-09-28T03:38:16.674Z,100.00
2022-09-28T03:48:46.116Z,100.00
2022-09-28T03:59:14.288Z,100.00
2022-09-28T04:09:53.670Z,100.00
2022-09-28T04:20:23.921Z,100.00
2022-09-28T04:30:55.344Z,100.00
2022-09-28T04:41:23.163Z,100.00
2022-09-28T04:52:11.022Z,100.00
2022-09-28T05:02:34.241Z,100.00
2022-09-28T05:13:04.243Z,100.00
2022-09-28T05:23:21.733Z,100.00
2022-09-28T05:34:00.025Z,100.00
2022-09-28T05:44:14.694Z,100.00
2022-09-28T05:54:35.168Z,100.00
2022-09-28T06:05:38.147Z,100.00
2022-09-28T06:16:08.116Z,100.00
2022-09-28T06:27:09.627Z,100.00
2022-09-28T06:37:35.040Z,100.00
2022-09-28T06:48:14.117Z,100.00
2022-09-28T06:58:25.533Z,100.00
2022-09-28T07:08:55.327Z,100.00
2022-09-28T07:20:07.380Z,100.00
2022-09-28T07:30:43.287Z,100.00
2022-09-28T07:41:56.704Z,100.00
2022-09-28T07:52:36.627Z,99.96
2022-09-28T08:03:18.676Z,99.15
2022-09-28T08:13:49.403Z,98.39
2022-09-28T08:24:32.231Z,98.33
2022-09-28T08:35:09.934Z,98.80
2022-09-28T08:45:36.834Z,95.96
2022-09-28T08:56:20.878Z,93.81
2022-09-28T09:06:53.917Z,93.05
2022-09-28T09:17:43.258Z,89.74
2022-09-28T09:29:20.372Z,88.55
2022-09-28T09:40:19.836Z,86.18
2022-09-28T09:51:17.587Z,82.95
2022-09-28T10:01:36.505Z,80.28
2022-09-28T10:11:58.974Z,79.80
2022-09-28T10:22:46.707Z,78.39
2022-09-28T10:32:59.560Z,77.99
2022-09-28T10:44:06.463Z,77.70
2022-09-28T10:54:54.017Z,75.50
2022-09-28T11:05:05.025Z,76.37
2022-09-28T11:16:04.595Z,76.40
2022-09-28T11:26:18.456Z,74.85
2022-09-28T11:37:16.125Z,74.67
2022-09-28T11:48:01.651Z,74.02
2022-09-28T11:58:53.725Z,73.98
2022-09-28T12:09:25.043Z,73.19
2022-09-28T12:19:47.937Z,73.73
2022-09-28T12:30:19.628Z,72.80
2022-09-28T12:40:39.068Z,72.00
2022-09-28T12:51:18.825Z,72.65
2022-09-28T13:02:02.596Z,73.76
2022-09-28T13:12:44.503Z,72.83
2022-09-28T13:23:02.515Z,71.09
2022-09-28T13:33:46.080Z,68.19
2022-09-28T13:44:47.950Z,66.64
2022-09-28T13:55:54.467Z,67.03
2022-09-28T14:06:26.532Z,67.99
2022-09-28T14:16:43.820Z,69.04
2022-09-28T14:27:31.699Z,68.37
2022-09-28T14:38:11.898Z,68.80
2022-09-28T14:49:01.922Z,67.67
2022-09-28T14:59:41.816Z,67.94
2022-09-28T15:09:51.948Z,69.24
2022-09-28T15:20:30.083Z,69.46
2022-09-28T15:30:59.776Z,70.32
2022-09-28T15:41:15.282Z,72.17
2022-09-28T15:52:18.758Z,74.60
2022-09-28T16:02:44.582Z,76.11
2022-09-28T16:13:40.555Z,76.46
2022-09-28T16:23:59.578Z,76.97
2022-09-28T16:34:20.565Z,76.20
2022-09-28T16:44:36.093Z,77.86
2022-09-28T16:55:10.262Z,78.64
2022-09-28T17:05:43.914Z,79.34
2022-09-28T17:16:15.825Z,80.23
2022-09-28T17:26:35.031Z,81.06
2022-09-28T17:36:42.489Z,82.10
2022-09-28T17:47:16.588Z,85.62
2022-09-28T17:57:29.034Z,88.72
2022-09-28T18:07:37.803Z,88.97
2022-09-28T18:18:24.866Z,90.10
2022-09-28T18:28:31.548Z,91.09
2022-09-28T18:38:43.395Z,91.71
2022-09-28T18:48:57.542Z,92.27
2022-09-28T18:59:27.529Z,91.73
2022-09-28T19:09:45.883Z,91.66
2022-09-28T19:19:57.220Z,93.48
2022-09-28T19:30:38.139Z,95.00
2022-09-28T19:41:37.818Z,95.22
2022-09-28T19:52:16.826Z,96.42
2022-09-28T20:02:57.416Z,97.51
2022-09-28T20:14:16.409Z,97.91
2022-09-28T20:25:07.912Z,97.62
2022-09-28T20:35:48.226Z,97.04
2022-09-28T20:46:20.069Z,97.48
2022-09-28T20:56:43.007Z,97.36
2022-09-28T21:07:07.289Z,98.73
2022-09-28T21:17:45.042Z,99.68
2022-09-28T21:28:48.678Z,99.92
2022-09-28T21:39:00.112Z,99.70
2022-09-28T21:50:06.813Z,99.56
2022-09-28T22:00:40.705Z,99.39
2022-09-28T22:11:44.946Z,99.22
2022-09-28T22:21:54.058Z,99.44
2022-09-28T22:32:33.710Z,99.27
2022-09-28T22:42:45.166Z,99.79
2022-09-28T22:53:22.898Z,100.00
2022-09-28T23:04:01.849Z,100.00
2022-09-28T23:14:48.958Z,100.00
2022-09-28T23:25:33.938Z,100.00
2022-09-28T23:36:48.829Z,100.00
2022-09-28T23:47:23.042Z,100.00
2022-09-28T23:58:10.894Z,100.00
